Mr. Mag — WDE7813 — position and weather

sailwx.info

Track history (hours):
 
Tides and Currents Weather Stations Pressure Air Temp Water Temp Dewpoint Dewpoint Depression Visibility Wind Speed Wind Dir Waves Ship Positions

Mr. Mag

Owner: Tandi Marine, Inc., Larose, LA. More information available from US FCC via Universal Licensing System and Coast Guard Vessel Documentation Center.

Last reported at 2016-May-20 05:25 UTC. Time now 2016-May-28 05:59 UTC.
Position N 29°47' W 092°11'.
Warning: this ship's position is 8 days out of date.

Length 46 m; draft 2.5 m.

Type: Passenger vessel. MMSI: 367397990.

Date/timePositionNaut miles runAvg speedWind from/ knotsBaromVisibWave heightAir tempDewpointWater temp
2016-May-20 05:25N 29°47' W 092°11'  
2016-May-17 07:27N 29°40' W 093°20'7 3.2
2016-May-17 05:20N 29°46' W 093°21'3 3.7
2016-May-17 04:33N 29°49' W 093°20'2 1.8
2016-May-17 03:33N 29°48' W 093°21'9 0.5
2016-May-16 09:16N 29°38' W 093°21'913.2
2016-May-16 08:34N 29°47' W 093°21'2 1.9
2016-May-16 07:34N 29°49' W 093°20'0 0.0
2016-May-16 06:34N 29°49' W 093°20'0 0.0
2016-May-16 04:17N 29°49' W 093°20'0 0.0
2016-May-16 03:33N 29°49' W 093°20'0 0.1
2016-May-16 02:33N 29°49' W 093°20'0 0.0
2016-May-16 01:33N 29°49' W 093°20'0 0.0
2016-May-16 00:34N 29°49' W 093°20'0 0.0
2016-May-15 23:34N 29°49' W 093°20'0 0.0
2016-May-15 22:33N 29°49' W 093°20'0 0.0
2016-May-15 21:34N 29°49' W 093°20'0 0.0
2016-May-15 20:33N 29°49' W 093°20'0 0.0
2016-May-15 19:34N 29°49' W 093°20'0 0.0
2016-May-15 18:33N 29°49' W 093°20'0 0.0
2016-May-15 17:33N 29°49' W 093°20'0 0.1
2016-May-15 16:33N 29°49' W 093°20'3 3.2
2016-May-15 15:33N 29°46' W 093°21'1514.1
2016-May-15 14:28N 29°31' W 093°22'11 0.5
2016-May-14 15:33N 29°42' W 093°20'5 4.8
2016-May-14 14:33N 29°46' W 093°21'0 0.0
2016-May-14 13:20N 29°46' W 093°21'3 3.7
2016-May-14 12:33N 29°49' W 093°20'1 1.3
2016-May-14 11:33N 29°48' W 093°21'12 0.5
2016-May-13 12:21N 29°36' W 093°21'1114.5
2016-May-13 11:33N 29°48' W 093°21'1 0.2
2016-May-13 04:09N 29°49' W 093°20'0 0.1
2016-May-13 03:34N 29°49' W 093°20'0 0.0
2016-May-13 02:33N 29°49' W 093°20'0 0.0
2016-May-13 01:22N 29°49' W 093°20'0 0.0
2016-May-13 00:26N 29°49' W 093°20'0 0.0
2016-May-12 23:33N 29°49' W 093°20'0 0.0
2016-May-12 22:33N 29°49' W 093°20'0 0.0
2016-May-12 21:34N 29°49' W 093°20'1 0.9
2016-May-12 20:34N 29°48' W 093°21'2 1.9
2016-May-12 19:34N 29°47' W 093°21'3 2.7
2016-May-12 18:33N 29°49' W 093°20'0 0.0
2016-May-12 17:34N 29°49' W 093°20'0 0.1
2016-May-12 16:34N 29°49' W 093°20'0 0.0
2016-May-12 15:34N 29°49' W 093°20'0 0.0
2016-May-12 14:33N 29°49' W 093°20'0 0.0
2016-May-12 13:33N 29°49' W 093°20'0 0.0
2016-May-12 12:34N 29°49' W 093°20'0 0.0
2016-May-12 11:33N 29°49' W 093°20'2 1.8
2016-May-12 10:34N 29°48' W 093°21'77 6.8
2016-May-11 23:12N 28°31' W 093°35'1117.4
2016-May-11 22:33N 28°42' W 093°33'1717.1
2016-May-11 21:32N 28°59' W 093°29'3716.6
2016-May-11 19:19N 29°35' W 093°20'1114.6
2016-May-11 18:33N 29°47' W 093°21'3 2.7
2016-May-11 17:33N 29°49' W 093°20'1 0.6
2016-May-11 16:33N 29°49' W 093°21'0 0.0
2016-May-11 15:33N 29°49' W 093°21'0 0.0
2016-May-11 14:33N 29°49' W 093°21'0 0.0
2016-May-11 13:31N 29°49' W 093°21'0 0.0
2016-May-11 12:33N 29°49' W 093°21'0 0.0
2016-May-11 11:32N 29°49' W 093°21'0 0.0
2016-May-11 04:30N 29°49' W 093°21'0 0.0
2016-May-11 03:26N 29°49' W 093°21'0 0.0
2016-May-11 02:33N 29°49' W 093°21'0 0.0
2016-May-11 01:33N 29°49' W 093°21'0 0.0
2016-May-11 00:32N 29°49' W 093°21'1 1.1
2016-May-10 23:33N 29°48' W 093°21'1 1.4
2016-May-10 22:33N 29°46' W 093°21'3 2.9
2016-May-10 21:33N 29°49' W 093°21'2 1.6
2016-May-10 20:33N 29°48' W 093°21'5 0.4
2016-May-10 06:33N 29°43' W 093°20'7 6.8
2016-May-10 05:33N 29°49' W 093°20'  
Track history (hours):
 
Tides and Currents Weather Stations Pressure Air Temp Water Temp Dewpoint Dewpoint Depression Visibility Wind Speed Wind Dir Waves Ship Positions

Mr. Mag

Owner: Tandi Marine, Inc., Larose, LA. More information available from US FCC via Universal Licensing System and Coast Guard Vessel Documentation Center.

Last reported at 2016-May-20 05:25 UTC. Time now 2016-May-28 05:59 UTC.
Position N 29°47' W 092°11'.
Warning: this ship's position is 8 days out of date.

Length 46 m; draft 2.5 m.

Type: Passenger vessel. MMSI: 367397990.

Date/timePositionNaut miles runAvg speedWind from/ knotsBaromVisibWave heightAir tempDewpointWater temp
2016-May-20 05:25N 29°47' W 092°11'  
2016-May-17 07:27N 29°40' W 093°20'7 3.2
2016-May-17 05:20N 29°46' W 093°21'3 3.7
2016-May-17 04:33N 29°49' W 093°20'2 1.8
2016-May-17 03:33N 29°48' W 093°21'9 0.5
2016-May-16 09:16N 29°38' W 093°21'913.2
2016-May-16 08:34N 29°47' W 093°21'2 1.9
2016-May-16 07:34N 29°49' W 093°20'0 0.0
2016-May-16 06:34N 29°49' W 093°20'0 0.0
2016-May-16 04:17N 29°49' W 093°20'0 0.0
2016-May-16 03:33N 29°49' W 093°20'0 0.1
2016-May-16 02:33N 29°49' W 093°20'0 0.0
2016-May-16 01:33N 29°49' W 093°20'0 0.0
2016-May-16 00:34N 29°49' W 093°20'0 0.0
2016-May-15 23:34N 29°49' W 093°20'0 0.0
2016-May-15 22:33N 29°49' W 093°20'0 0.0
2016-May-15 21:34N 29°49' W 093°20'0 0.0
2016-May-15 20:33N 29°49' W 093°20'0 0.0
2016-May-15 19:34N 29°49' W 093°20'0 0.0
2016-May-15 18:33N 29°49' W 093°20'0 0.0
2016-May-15 17:33N 29°49' W 093°20'0 0.1
2016-May-15 16:33N 29°49' W 093°20'3 3.2
2016-May-15 15:33N 29°46' W 093°21'1514.1
2016-May-15 14:28N 29°31' W 093°22'11 0.5
2016-May-14 15:33N 29°42' W 093°20'5 4.8
2016-May-14 14:33N 29°46' W 093°21'0 0.0
2016-May-14 13:20N 29°46' W 093°21'3 3.7
2016-May-14 12:33N 29°49' W 093°20'1 1.3
2016-May-14 11:33N 29°48' W 093°21'12 0.5
2016-May-13 12:21N 29°36' W 093°21'1114.5
2016-May-13 11:33N 29°48' W 093°21'1 0.2
2016-May-13 04:09N 29°49' W 093°20'0 0.1
2016-May-13 03:34N 29°49' W 093°20'0 0.0
2016-May-13 02:33N 29°49' W 093°20'0 0.0
2016-May-13 01:22N 29°49' W 093°20'0 0.0
2016-May-13 00:26N 29°49' W 093°20'0 0.0
2016-May-12 23:33N 29°49' W 093°20'0 0.0
2016-May-12 22:33N 29°49' W 093°20'0 0.0
2016-May-12 21:34N 29°49' W 093°20'1 0.9
2016-May-12 20:34N 29°48' W 093°21'2 1.9
2016-May-12 19:34N 29°47' W 093°21'3 2.7
2016-May-12 18:33N 29°49' W 093°20'0 0.0
2016-May-12 17:34N 29°49' W 093°20'0 0.1
2016-May-12 16:34N 29°49' W 093°20'0 0.0
2016-May-12 15:34N 29°49' W 093°20'0 0.0
2016-May-12 14:33N 29°49' W 093°20'0 0.0
2016-May-12 13:33N 29°49' W 093°20'0 0.0
2016-May-12 12:34N 29°49' W 093°20'0 0.0
2016-May-12 11:33N 29°49' W 093°20'2 1.8
2016-May-12 10:34N 29°48' W 093°21'77 6.8
2016-May-11 23:12N 28°31' W 093°35'1117.4
2016-May-11 22:33N 28°42' W 093°33'1717.1
2016-May-11 21:32N 28°59' W 093°29'3716.6
2016-May-11 19:19N 29°35' W 093°20'1114.6
2016-May-11 18:33N 29°47' W 093°21'3 2.7
2016-May-11 17:33N 29°49' W 093°20'1 0.6
2016-May-11 16:33N 29°49' W 093°21'0 0.0
2016-May-11 15:33N 29°49' W 093°21'0 0.0
2016-May-11 14:33N 29°49' W 093°21'0 0.0
2016-May-11 13:31N 29°49' W 093°21'0 0.0
2016-May-11 12:33N 29°49' W 093°21'0 0.0
2016-May-11 11:32N 29°49' W 093°21'0 0.0
2016-May-11 04:30N 29°49' W 093°21'0 0.0
2016-May-11 03:26N 29°49' W 093°21'0 0.0
2016-May-11 02:33N 29°49' W 093°21'0 0.0
2016-May-11 01:33N 29°49' W 093°21'0 0.0
2016-May-11 00:32N 29°49' W 093°21'1 1.1
2016-May-10 23:33N 29°48' W 093°21'1 1.4
2016-May-10 22:33N 29°46' W 093°21'3 2.9
2016-May-10 21:33N 29°49' W 093°21'2 1.6
2016-May-10 20:33N 29°48' W 093°21'5 0.4
2016-May-10 06:33N 29°43' W 093°20'7 6.8
2016-May-10 05:33N 29°49' W 093°20'  

Dump ship's entire track history